sensor_id;sensor_type;location;lat;lon;timestamp;pressure;altitude;pressure_sealevel;temperature;humidity
68793;BME280;55778;54.346;10.210;2023-02-13T00:01:00;103364.09;;;6.24;97.07
68793;BME280;55778;54.346;10.210;2023-02-13T00:03:25;103365.91;;;6.24;95.92
68793;BME280;55778;54.346;10.210;2023-02-13T00:05:51;103365.75;;;6.28;94.69
68793;BME280;55778;54.346;10.210;2023-02-13T00:08:16;103366.38;;;6.36;93.57
68793;BME280;55778;54.346;10.210;2023-02-13T00:10:42;103367.16;;;6.38;93.42
68793;BME280;55778;54.346;10.210;2023-02-13T00:13:07;103357.28;;;6.37;93.10
68793;BME280;55778;54.346;10.210;2023-02-13T00:15:32;103360.00;;;6.37;92.46
68793;BME280;55778;54.346;10.210;2023-02-13T00:17:58;103358.13;;;6.39;90.29
68793;BME280;55778;54.346;10.210;2023-02-13T00:20:24;103362.66;;;6.39;91.53
68793;BME280;55778;54.346;10.210;2023-02-13T00:22:49;103358.19;;;6.38;91.60
68793;BME280;55778;54.346;10.210;2023-02-13T00:25:14;103350.06;;;6.38;91.99
68793;BME280;55778;54.346;10.210;2023-02-13T00:27:40;103349.94;;;6.41;91.53
68793;BME280;55778;54.346;10.210;2023-02-13T00:30:06;103349.28;;;6.34;91.71
68793;BME280;55778;54.346;10.210;2023-02-13T00:32:31;103349.22;;;6.36;91.72
68793;BME280;55778;54.346;10.210;2023-02-13T00:34:57;103350.81;;;6.41;91.74
68793;BME280;55778;54.346;10.210;2023-02-13T00:37:23;103348.53;;;6.29;92.12
68793;BME280;55778;54.346;10.210;2023-02-13T00:39:49;103350.41;;;6.29;92.97
68793;BME280;55778;54.346;10.210;2023-02-13T00:42:14;103338.72;;;6.27;93.50
68793;BME280;55778;54.346;10.210;2023-02-13T00:44:39;103347.53;;;6.33;93.22
68793;BME280;55778;54.346;10.210;2023-02-13T00:47:05;103357.50;;;6.31;93.63
68793;BME280;55778;54.346;10.210;2023-02-13T00:49:30;103350.72;;;6.20;94.31
68793;BME280;55778;54.346;10.210;2023-02-13T00:51:56;103358.69;;;6.24;94.47
68793;BME280;55778;54.346;10.210;2023-02-13T00:54:21;103359.69;;;6.22;94.34
68793;BME280;55778;54.346;10.210;2023-02-13T00:56:47;103359.53;;;6.25;94.05
68793;BME280;55778;54.346;10.210;2023-02-13T00:59:13;103350.56;;;6.24;92.97
68793;BME280;55778;54.346;10.210;2023-02-13T01:01:38;103360.59;;;6.21;93.78
68793;BME280;55778;54.346;10.210;2023-02-13T01:04:04;103349.38;;;6.31;92.97
68793;BME280;55778;54.346;10.210;2023-02-13T01:06:29;103344.09;;;6.28;92.91
68793;BME280;55778;54.346;10.210;2023-02-13T01:08:54;103352.47;;;6.21;93.83
68793;BME280;55778;54.346;10.210;2023-02-13T01:11:20;103352.25;;;6.27;92.80
68793;BME280;55778;54.346;10.210;2023-02-13T01:13:45;103352.03;;;6.33;92.81
68793;BME280;55778;54.346;10.210;2023-02-13T01:16:11;103342.09;;;6.33;92.57
68793;BME280;55778;54.346;10.210;2023-02-13T01:18:37;103343.28;;;6.25;92.20
68793;BME280;55778;54.346;10.210;2023-02-13T01:21:07;103347.53;;;6.33;91.62
68793;BME280;55778;54.346;10.210;2023-02-13T01:23:35;103340.47;;;6.28;91.77
68793;BME280;55778;54.346;10.210;2023-02-13T01:26:06;103346.63;;;6.33;91.69
68793;BME280;55778;54.346;10.210;2023-02-13T01:28:32;103341.53;;;6.24;92.01
68793;BME280;55778;54.346;10.210;2023-02-13T01:30:57;103344.25;;;6.24;92.40
68793;BME280;55778;54.346;10.210;2023-02-13T01:33:24;103339.72;;;6.24;91.85
68793;BME280;55778;54.346;10.210;2023-02-13T01:35:50;103337.06;;;6.23;91.82
68793;BME280;55778;54.346;10.210;2023-02-13T01:38:16;103333.25;;;6.28;90.86
68793;BME280;55778;54.346;10.210;2023-02-13T01:40:50;103334.59;;;6.17;91.74
68793;BME280;55778;54.346;10.210;2023-02-13T01:43:16;103345.53;;;6.13;91.26
68793;BME280;55778;54.346;10.210;2023-02-13T01:45:44;103351.78;;;6.16;90.92
68793;BME280;55778;54.346;10.210;2023-02-13T01:48:19;103339.16;;;6.14;90.82
68793;BME280;55778;54.346;10.210;2023-02-13T01:50:59;103333.59;;;6.19;89.56
68793;BME280;55778;54.346;10.210;2023-02-13T01:53:31;103335.44;;;6.19;88.98
68793;BME280;55778;54.346;10.210;2023-02-13T01:56:17;103334.94;;;6.31;88.69
68793;BME280;55778;54.346;10.210;2023-02-13T01:58:45;103336.50;;;6.13;89.79
68793;BME280;55778;54.346;10.210;2023-02-13T02:01:12;103338.78;;;6.25;89.54
68793;BME280;55778;54.346;10.210;2023-02-13T02:04:50;103329.06;;;6.20;90.08
68793;BME280;55778;54.346;10.210;2023-02-13T02:06:51;103335.47;;;6.17;90.46
68793;BME280;55778;54.346;10.210;2023-02-13T02:09:23;103324.28;;;6.26;90.07
68793;BME280;55778;54.346;10.210;2023-02-13T02:12:00;103328.13;;;6.21;89.77
68793;BME280;55778;54.346;10.210;2023-02-13T02:14:27;103332.66;;;6.20;90.11
68793;BME280;55778;54.346;10.210;2023-02-13T02:16:52;103323.75;;;6.17;90.47
68793;BME280;55778;54.346;10.210;2023-02-13T02:19:40;103313.09;;;6.12;90.47
68793;BME280;55778;54.346;10.210;2023-02-13T02:25:13;103323.19;;;6.07;90.70
68793;BME280;55778;54.346;10.210;2023-02-13T02:41:22;103322.34;;;6.06;91.23
68793;BME280;55778;54.346;10.210;2023-02-13T02:46:43;103322.13;;;5.86;92.27
68793;BME280;55778;54.346;10.210;2023-02-13T02:49:37;103319.44;;;5.86;92.47
68793;BME280;55778;54.346;10.210;2023-02-13T02:52:45;103311.53;;;5.79;92.81
68793;BME280;55778;54.346;10.210;2023-02-13T03:00:47;103320.28;;;5.88;90.57
68793;BME280;55778;54.346;10.210;2023-02-13T03:03:33;103325.78;;;5.85;91.53
68793;BME280;55778;54.346;10.210;2023-02-13T03:06:29;103318.72;;;5.81;91.83
68793;BME280;55778;54.346;10.210;2023-02-13T03:09:00;103315.97;;;5.83;91.52
68793;BME280;55778;54.346;10.210;2023-02-13T03:11:48;103314.06;;;5.85;90.79
68793;BME280;55778;54.346;10.210;2023-02-13T03:14:33;103307.75;;;5.86;91.67
68793;BME280;55778;54.346;10.210;2023-02-13T03:16:59;103317.72;;;5.84;90.91
68793;BME280;55778;54.346;10.210;2023-02-13T03:20:12;103315.91;;;5.84;90.70
68793;BME280;55778;54.346;10.210;2023-02-13T03:23:10;103306.84;;;5.85;90.63
68793;BME280;55778;54.346;10.210;2023-02-13T03:26:01;103306.94;;;5.82;90.57
68793;BME280;55778;54.346;10.210;2023-02-13T03:28:53;103307.59;;;5.89;88.95
68793;BME280;55778;54.346;10.210;2023-02-13T03:32:05;103306.84;;;5.85;89.05
68793;BME280;55778;54.346;10.210;2023-02-13T03:34:37;103303.81;;;5.94;88.88
68793;BME280;55778;54.346;10.210;2023-02-13T03:37:28;103314.91;;;5.87;89.24
68793;BME280;55778;54.346;10.210;2023-02-13T03:42:53;103314.75;;;5.91;89.80
68793;BME280;55778;54.346;10.210;2023-02-13T03:45:36;103311.16;;;5.91;90.30
68793;BME280;55778;54.346;10.210;2023-02-13T03:48:26;103310.34;;;5.87;90.14
68793;BME280;55778;54.346;10.210;2023-02-13T03:51:18;103309.44;;;5.88;90.51
68793;BME280;55778;54.346;10.210;2023-02-13T03:53:49;103310.44;;;5.86;90.42
68793;BME280;55778;54.346;10.210;2023-02-13T03:56:17;103309.06;;;5.99;90.39
68793;BME280;55778;54.346;10.210;2023-02-13T03:59:03;103307.66;;;5.87;90.86
68793;BME280;55778;54.346;10.210;2023-02-13T04:02:29;103314.00;;;5.86;90.97
68793;BME280;55778;54.346;10.210;2023-02-13T04:04:58;103319.59;;;5.80;91.67
68793;BME280;55778;54.346;10.210;2023-02-13T04:07:26;103319.53;;;5.83;90.96
68793;BME280;55778;54.346;10.210;2023-02-13T04:10:15;103318.78;;;5.78;91.64
68793;BME280;55778;54.346;10.210;2023-02-13T04:12:59;103317.00;;;5.77;91.20
68793;BME280;55778;54.346;10.210;2023-02-13T04:15:31;103314.06;;;5.85;90.83
68793;BME280;55778;54.346;10.210;2023-02-13T04:18:09;103311.94;;;5.94;90.44
68793;BME280;55778;54.346;10.210;2023-02-13T04:20:37;103321.31;;;5.84;90.56
68793;BME280;55778;54.346;10.210;2023-02-13T04:23:05;103315.84;;;5.86;90.79
68793;BME280;55778;54.346;10.210;2023-02-13T04:25:31;103315.00;;;5.84;90.50
68793;BME280;55778;54.346;10.210;2023-02-13T04:27:57;103312.38;;;5.82;90.35
68793;BME280;55778;54.346;10.210;2023-02-13T04:30:22;103317.91;;;5.78;90.47
68793;BME280;55778;54.346;10.210;2023-02-13T04:32:47;103314.13;;;5.83;90.29
68793;BME280;55778;54.346;10.210;2023-02-13T04:35:13;103317.72;;;5.84;90.15
68793;BME280;55778;54.346;10.210;2023-02-13T04:37:39;103320.28;;;5.88;89.72
68793;BME280;55778;54.346;10.210;2023-02-13T04:40:05;103313.34;;;5.80;90.06
68793;BME280;55778;54.346;10.210;2023-02-13T04:42:30;103323.22;;;5.81;90.51
68793;BME280;55778;54.346;10.210;2023-02-13T04:44:56;103313.97;;;5.88;89.78
68793;BME280;55778;54.346;10.210;2023-02-13T04:47:21;103318.06;;;5.73;90.45
68793;BME280;55778;54.346;10.210;2023-02-13T04:49:46;103309.84;;;5.76;90.31
68793;BME280;55778;54.346;10.210;2023-02-13T04:52:12;103311.31;;;5.86;89.76
68793;BME280;55778;54.346;10.210;2023-02-13T04:54:39;103305.19;;;5.81;90.29
68793;BME280;55778;54.346;10.210;2023-02-13T04:57:05;103316.78;;;5.85;90.24
68793;BME280;55778;54.346;10.210;2023-02-13T04:59:30;103309.84;;;5.76;90.36
68793;BME280;55778;54.346;10.210;2023-02-13T05:01:55;103320.66;;;5.76;90.47
68793;BME280;55778;54.346;10.210;2023-02-13T05:04:23;103317.94;;;5.76;90.51
68793;BME280;55778;54.346;10.210;2023-02-13T05:06:49;103313.84;;;5.65;91.28
68793;BME280;55778;54.346;10.210;2023-02-13T05:09:15;103316.19;;;5.75;90.88
68793;BME280;55778;54.346;10.210;2023-02-13T05:11:40;103311.59;;;5.77;90.12
68793;BME280;55778;54.346;10.210;2023-02-13T05:14:05;103312.66;;;5.73;90.96
68793;BME280;55778;54.346;10.210;2023-02-13T05:16:31;103322.31;;;5.80;90.33
68793;BME280;55778;54.346;10.210;2023-02-13T05:18:56;103323.97;;;5.86;89.59
68793;BME280;55778;54.346;10.210;2023-02-13T05:21:22;103316.81;;;5.83;90.29
68793;BME280;55778;54.346;10.210;2023-02-13T05:24:06;103322.25;;;5.83;90.13
68793;BME280;55778;54.346;10.210;2023-02-13T05:26:31;103324.16;;;5.80;90.08
68793;BME280;55778;54.346;10.210;2023-02-13T05:28:57;103322.19;;;5.85;89.80
68793;BME280;55778;54.346;10.210;2023-02-13T05:31:41;103322.53;;;5.74;90.28
68793;BME280;55778;54.346;10.210;2023-02-13T05:34:06;103328.78;;;5.76;90.28
68793;BME280;55778;54.346;10.210;2023-02-13T05:36:31;103322.41;;;5.77;89.74
68793;BME280;55778;54.346;10.210;2023-02-13T05:38:57;103328.19;;;5.67;90.94
68793;BME280;55778;54.346;10.210;2023-02-13T05:41:22;103326.38;;;5.67;90.59
68793;BME280;55778;54.346;10.210;2023-02-13T05:43:48;103326.91;;;5.78;90.11
68793;BME280;55778;54.346;10.210;2023-02-13T05:46:14;103326.06;;;5.76;89.88
68793;BME280;55778;54.346;10.210;2023-02-13T05:48:40;103325.31;;;5.71;90.59
68793;BME280;55778;54.346;10.210;2023-02-13T05:51:05;103334.34;;;5.72;90.47
68793;BME280;55778;54.346;10.210;2023-02-13T05:53:31;103327.38;;;5.65;90.66
68793;BME280;55778;54.346;10.210;2023-02-13T05:56:00;103330.63;;;5.74;89.68
68793;BME280;55778;54.346;10.210;2023-02-13T05:58:26;103331.44;;;5.78;89.62
68793;BME280;55778;54.346;10.210;2023-02-13T06:00:54;103334.22;;;5.75;89.64
68793;BME280;55778;54.346;10.210;2023-02-13T06:03:20;103330.41;;;5.82;89.67
68793;BME280;55778;54.346;10.210;2023-02-13T06:05:45;103338.91;;;5.70;90.13
68793;BME280;55778;54.346;10.210;2023-02-13T06:08:10;103338.53;;;5.82;89.44
68793;BME280;55778;54.346;10.210;2023-02-13T06:10:36;103343.31;;;5.74;89.93
68793;BME280;55778;54.346;10.210;2023-02-13T06:13:01;103346.25;;;5.66;90.44
68793;BME280;55778;54.346;10.210;2023-02-13T06:15:27;103342.72;;;5.64;90.46
68793;BME280;55778;54.346;10.210;2023-02-13T06:17:52;103349.78;;;5.68;89.94
68793;BME280;55778;54.346;10.210;2023-02-13T06:20:18;103341.47;;;5.74;89.96
68793;BME280;55778;54.346;10.210;2023-02-13T06:22:47;103349.72;;;5.70;89.77
68793;BME280;55778;54.346;10.210;2023-02-13T06:25:12;103344.38;;;5.68;90.25
68793;BME280;55778;54.346;10.210;2023-02-13T06:27:37;103348.88;;;5.69;90.30
68793;BME280;55778;54.346;10.210;2023-02-13T06:30:03;103346.09;;;5.71;90.13
68793;BME280;55778;54.346;10.210;2023-02-13T06:32:29;103351.09;;;5.57;90.98
68793;BME280;55778;54.346;10.210;2023-02-13T06:34:54;103347.31;;;5.61;90.71
68793;BME280;55778;54.346;10.210;2023-02-13T06:37:19;103348.38;;;5.57;90.80
68793;BME280;55778;54.346;10.210;2023-02-13T06:39:45;103360.53;;;5.70;90.05
68793;BME280;55778;54.346;10.210;2023-02-13T06:42:10;103361.50;;;5.69;89.83
68793;BME280;55778;54.346;10.210;2023-02-13T06:44:35;103350.94;;;5.61;90.87
68793;BME280;55778;54.346;10.210;2023-02-13T06:47:01;103361.69;;;5.63;90.50
68793;BME280;55778;54.346;10.210;2023-02-13T06:49:26;103359.84;;;5.65;90.19
68793;BME280;55778;54.346;10.210;2023-02-13T06:51:52;103368.06;;;5.62;90.77
68793;BME280;55778;54.346;10.210;2023-02-13T06:54:17;103367.91;;;5.66;91.01
68793;BME280;55778;54.346;10.210;2023-02-13T06:56:42;103368.25;;;5.56;91.11
68793;BME280;55778;54.346;10.210;2023-02-13T06:59:08;103369.97;;;5.58;90.89
68793;BME280;55778;54.346;10.210;2023-02-13T07:01:33;103372.38;;;5.67;90.17
68793;BME280;55778;54.346;10.210;2023-02-13T07:03:59;103371.66;;;5.61;90.48
68793;BME280;55778;54.346;10.210;2023-02-13T07:06:24;103366.16;;;5.64;90.00
68793;BME280;55778;54.346;10.210;2023-02-13T07:08:49;103370.66;;;5.65;90.05
68793;BME280;55778;54.346;10.210;2023-02-13T07:11:20;103366.38;;;5.58;90.45
68793;BME280;55778;54.346;10.210;2023-02-13T07:13:46;103372.25;;;5.70;89.95
68793;BME280;55778;54.346;10.210;2023-02-13T07:16:11;103369.81;;;5.63;90.23
68793;BME280;55778;54.346;10.210;2023-02-13T07:18:37;103373.31;;;5.66;89.74
68793;BME280;55778;54.346;10.210;2023-02-13T07:21:02;103376.78;;;5.70;89.21
68793;BME280;55778;54.346;10.210;2023-02-13T07:23:28;103377.81;;;5.66;89.26
68793;BME280;55778;54.346;10.210;2023-02-13T07:25:53;103383.03;;;5.72;89.63
68793;BME280;55778;54.346;10.210;2023-02-13T07:28:19;103391.34;;;5.66;89.77
68793;BME280;55778;54.346;10.210;2023-02-13T07:30:44;103383.38;;;5.61;90.46
68793;BME280;55778;54.346;10.210;2023-02-13T07:33:09;103378.88;;;5.62;90.06
68793;BME280;55778;54.346;10.210;2023-02-13T07:35:35;103387.91;;;5.61;89.80
68793;BME280;55778;54.346;10.210;2023-02-13T07:38:02;103377.94;;;5.63;89.95
68793;BME280;55778;54.346;10.210;2023-02-13T07:40:28;103388.53;;;5.69;89.34
68793;BME280;55778;54.346;10.210;2023-02-13T07:42:54;103393.00;;;5.70;88.98
68793;BME280;55778;54.346;10.210;2023-02-13T07:45:20;103392.72;;;5.79;88.76
68793;BME280;55778;54.346;10.210;2023-02-13T07:47:45;103394.06;;;5.66;89.69
68793;BME280;55778;54.346;10.210;2023-02-13T07:50:11;103401.38;;;5.62;89.42
68793;BME280;55778;54.346;10.210;2023-02-13T07:52:37;103404.97;;;5.63;90.02
68793;BME280;55778;54.346;10.210;2023-02-13T07:55:03;103408.28;;;5.72;89.17
68793;BME280;55778;54.346;10.210;2023-02-13T07:57:29;103413.00;;;5.66;89.61
68793;BME280;55778;54.346;10.210;2023-02-13T07:59:56;103409.78;;;5.82;88.51
68793;BME280;55778;54.346;10.210;2023-02-13T08:02:21;103409.94;;;5.76;88.66
68793;BME280;55778;54.346;10.210;2023-02-13T08:04:47;103410.03;;;5.73;89.12
68793;BME280;55778;54.346;10.210;2023-02-13T08:07:13;103398.22;;;5.76;88.71
68793;BME280;55778;54.346;10.210;2023-02-13T08:09:39;103405.31;;;5.80;89.31
68793;BME280;55778;54.346;10.210;2023-02-13T08:12:23;103399.91;;;5.81;88.38
68793;BME280;55778;54.346;10.210;2023-02-13T08:14:49;103399.91;;;5.81;88.71
68793;BME280;55778;54.346;10.210;2023-02-13T08:17:14;103406.22;;;5.79;88.96
68793;BME280;55778;54.346;10.210;2023-02-13T08:19:39;103407.00;;;5.84;88.30
68793;BME280;55778;54.346;10.210;2023-02-13T08:22:05;103397.03;;;5.86;88.10
68793;BME280;55778;54.346;10.210;2023-02-13T08:24:31;103405.88;;;5.91;87.86
68793;BME280;55778;54.346;10.210;2023-02-13T08:26:59;103402.72;;;5.77;88.52
68793;BME280;55778;54.346;10.210;2023-02-13T08:29:24;103405.19;;;5.84;88.47
68793;BME280;55778;54.346;10.210;2023-02-13T08:31:50;103399.66;;;5.87;87.64
68793;BME280;55778;54.346;10.210;2023-02-13T08:34:15;103407.06;;;5.82;88.13
68793;BME280;55778;54.346;10.210;2023-02-13T08:36:40;103401.19;;;5.96;87.14
68793;BME280;55778;54.346;10.210;2023-02-13T08:39:08;103403.16;;;5.91;87.63
68793;BME280;55778;54.346;10.210;2023-02-13T08:41:33;103403.78;;;5.99;87.11
68793;BME280;55778;54.346;10.210;2023-02-13T08:43:59;103399.56;;;5.90;87.51
68793;BME280;55778;54.346;10.210;2023-02-13T08:46:25;103405.75;;;5.94;87.57
68793;BME280;55778;54.346;10.210;2023-02-13T08:48:50;103402.78;;;6.01;86.73
68793;BME280;55778;54.346;10.210;2023-02-13T08:51:16;103413.31;;;6.10;86.04
68793;BME280;55778;54.346;10.210;2023-02-13T08:53:41;103408.09;;;6.04;86.01
68793;BME280;55778;54.346;10.210;2023-02-13T08:56:07;103405.59;;;5.98;86.37
68793;BME280;55778;54.346;10.210;2023-02-13T08:58:33;103409.00;;;6.05;86.64
68793;BME280;55778;54.346;10.210;2023-02-13T09:00:58;103411.13;;;5.95;86.35
68793;BME280;55778;54.346;10.210;2023-02-13T09:03:24;103418.09;;;6.02;86.55
68793;BME280;55778;54.346;10.210;2023-02-13T09:05:49;103414.31;;;6.08;85.75
68793;BME280;55778;54.346;10.210;2023-02-13T09:08:15;103416.22;;;6.04;85.57
68793;BME280;55778;54.346;10.210;2023-02-13T09:10:41;103404.41;;;6.07;85.85
68793;BME280;55778;54.346;10.210;2023-02-13T09:13:08;103409.16;;;6.00;85.87
68793;BME280;55778;54.346;10.210;2023-02-13T09:15:37;103416.22;;;6.04;85.46
68793;BME280;55778;54.346;10.210;2023-02-13T09:18:03;103410.50;;;6.13;85.11
68793;BME280;55778;54.346;10.210;2023-02-13T09:20:28;103405.19;;;6.10;85.02
68793;BME280;55778;54.346;10.210;2023-02-13T09:22:54;103406.34;;;6.03;85.35
68793;BME280;55778;54.346;10.210;2023-02-13T09:25:20;103403.44;;;6.09;85.36
68793;BME280;55778;54.346;10.210;2023-02-13T09:27:46;103402.53;;;6.09;85.21
68793;BME280;55778;54.346;10.210;2023-02-13T09:30:11;103405.81;;;6.19;84.40
68793;BME280;55778;54.346;10.210;2023-02-13T09:32:42;103406.84;;;6.14;85.00
68793;BME280;55778;54.346;10.210;2023-02-13T09:35:08;103403.16;;;6.17;84.97
68793;BME280;55778;54.346;10.210;2023-02-13T09:37:33;103407.78;;;6.13;85.16
68793;BME280;55778;54.346;10.210;2023-02-13T09:39:58;103404.13;;;6.14;84.42
68793;BME280;55778;54.346;10.210;2023-02-13T09:42:28;103403.75;;;6.25;84.09
68793;BME280;55778;54.346;10.210;2023-02-13T09:44:59;103404.53;;;6.29;84.14
68793;BME280;55778;54.346;10.210;2023-02-13T09:50:15;103403.66;;;6.28;84.92
68793;BME280;55778;54.346;10.210;2023-02-13T09:52:43;103405.97;;;6.39;84.00
68793;BME280;55778;54.346;10.210;2023-02-13T09:55:17;103404.97;;;6.41;83.54
68793;BME280;55778;54.346;10.210;2023-02-13T10:00:27;103403.16;;;6.42;84.01
68793;BME280;55778;54.346;10.210;2023-02-13T10:05:50;103390.94;;;6.55;83.56
68793;BME280;55778;54.346;10.210;2023-02-13T10:13:53;103404.66;;;6.50;83.41
68793;BME280;55778;54.346;10.210;2023-02-13T10:16:25;103409.31;;;6.47;83.51
68793;BME280;55778;54.346;10.210;2023-02-13T10:19:03;103412.88;;;6.47;83.13
68793;BME280;55778;54.346;10.210;2023-02-13T10:21:37;103414.84;;;6.44;83.72
68793;BME280;55778;54.346;10.210;2023-02-13T10:24:10;103409.47;;;6.42;83.47
68793;BME280;55778;54.346;10.210;2023-02-13T10:26:38;103419.41;;;6.42;84.28
68793;BME280;55778;54.346;10.210;2023-02-13T10:29:29;103417.44;;;6.47;83.21
68793;BME280;55778;54.346;10.210;2023-02-13T10:32:17;103416.06;;;6.60;82.67
68793;BME280;55778;54.346;10.210;2023-02-13T10:34:46;103407.63;;;6.67;82.55
68793;BME280;55778;54.346;10.210;2023-02-13T10:37:18;103407.19;;;6.55;82.46
68793;BME280;55778;54.346;10.210;2023-02-13T10:39:48;103410.22;;;6.46;83.33
68793;BME280;55778;54.346;10.210;2023-02-13T10:42:20;103403.38;;;6.60;82.91
68793;BME280;55778;54.346;10.210;2023-02-13T10:45:12;103402.34;;;6.64;82.59
68793;BME280;55778;54.346;10.210;2023-02-13T10:50:50;103402.44;;;6.61;82.25
68793;BME280;55778;54.346;10.210;2023-02-13T10:59:44;103392.81;;;6.77;81.87
68793;BME280;55778;54.346;10.210;2023-02-13T11:02:26;103388.78;;;6.64;82.31
68793;BME280;55778;54.346;10.210;2023-02-13T11:04:58;103387.84;;;6.65;82.93
68793;BME280;55778;54.346;10.210;2023-02-13T11:07:25;103383.53;;;6.60;82.07
68793;BME280;55778;54.346;10.210;2023-02-13T11:09:55;103384.72;;;6.76;81.74
68793;BME280;55778;54.346;10.210;2023-02-13T11:12:28;103386.88;;;6.66;82.26
68793;BME280;55778;54.346;10.210;2023-02-13T11:15:02;103386.78;;;6.69;82.82
68793;BME280;55778;54.346;10.210;2023-02-13T11:17:30;103381.53;;;6.65;81.49
68793;BME280;55778;54.346;10.210;2023-02-13T11:19:59;103383.84;;;6.75;81.57
68793;BME280;55778;54.346;10.210;2023-02-13T11:25:20;103381.91;;;6.79;81.06
68793;BME280;55778;54.346;10.210;2023-02-13T11:27:49;103387.44;;;6.99;80.52
68793;BME280;55778;54.346;10.210;2023-02-13T11:30:34;103384.38;;;6.85;81.44
68793;BME280;55778;54.346;10.210;2023-02-13T11:33:21;103391.56;;;6.86;81.86
68793;BME280;55778;54.346;10.210;2023-02-13T11:35:46;103383.69;;;7.03;80.52
68793;BME280;55778;54.346;10.210;2023-02-13T11:38:22;103384.66;;;7.00;80.14
68793;BME280;55778;54.346;10.210;2023-02-13T11:41:08;103377.66;;;6.95;81.07
68793;BME280;55778;54.346;10.210;2023-02-13T11:43:47;103376.41;;;7.03;80.60
68793;BME280;55778;54.346;10.210;2023-02-13T11:46:22;103378.38;;;7.00;80.29
68793;BME280;55778;54.346;10.210;2023-02-13T11:51:47;103373.25;;;6.92;79.40
68793;BME280;55778;54.346;10.210;2023-02-13T11:54:33;103372.25;;;6.95;79.24
68793;BME280;55778;54.346;10.210;2023-02-13T11:57:20;103369.75;;;6.89;78.98
68793;BME280;55778;54.346;10.210;2023-02-13T11:59:48;103365.75;;;6.99;80.10
68793;BME280;55778;54.346;10.210;2023-02-13T12:04:42;103367.78;;;6.94;80.03
68793;BME280;55778;54.346;10.210;2023-02-13T12:07:12;103378.44;;;6.98;80.31
68793;BME280;55778;54.346;10.210;2023-02-13T12:09:39;103359.53;;;7.18;79.00
68793;BME280;55778;54.346;10.210;2023-02-13T12:12:05;103359.28;;;7.03;78.31
68793;BME280;55778;54.346;10.210;2023-02-13T12:14:42;103364.28;;;7.13;77.99
68793;BME280;55778;54.346;10.210;2023-02-13T12:17:21;103374.78;;;6.99;79.21
68793;BME280;55778;54.346;10.210;2023-02-13T12:19:49;103381.63;;;6.86;79.30
68793;BME280;55778;54.346;10.210;2023-02-13T12:25:32;103378.97;;;6.85;78.89
68793;BME280;55778;54.346;10.210;2023-02-13T12:28:10;103376.31;;;6.83;78.65
68793;BME280;55778;54.346;10.210;2023-02-13T12:30:54;103376.22;;;7.08;78.52
68793;BME280;55778;54.346;10.210;2023-02-13T12:36:27;103360.47;;;6.96;78.33
68793;BME280;55778;54.346;10.210;2023-02-13T12:44:31;103360.50;;;6.71;78.58
68793;BME280;55778;54.346;10.210;2023-02-13T12:47:20;103366.81;;;6.72;78.74
68793;BME280;55778;54.346;10.210;2023-02-13T12:50:03;103351.09;;;6.81;78.33
68793;BME280;55778;54.346;10.210;2023-02-13T12:52:41;103354.81;;;6.79;78.88
68793;BME280;55778;54.346;10.210;2023-02-13T12:57:57;103358.88;;;6.67;78.95
68793;BME280;55778;54.346;10.210;2023-02-13T13:00:56;103360.41;;;6.74;79.44
68793;BME280;55778;54.346;10.210;2023-02-13T13:06:49;103364.34;;;6.66;79.06
68793;BME280;55778;54.346;10.210;2023-02-13T13:14:49;103365.16;;;6.68;79.62
68793;BME280;55778;54.346;10.210;2023-02-13T13:17:41;103368.53;;;6.74;79.38
68793;BME280;55778;54.346;10.210;2023-02-13T13:23:19;103383.59;;;6.58;79.88
68793;BME280;55778;54.346;10.210;2023-02-13T13:26:00;103380.53;;;6.67;79.99
68793;BME280;55778;54.346;10.210;2023-02-13T13:28:32;103365.53;;;6.59;80.22
68793;BME280;55778;54.346;10.210;2023-02-13T13:30:59;103362.63;;;6.63;79.38
68793;BME280;55778;54.346;10.210;2023-02-13T13:33:26;103355.44;;;6.62;80.09
68793;BME280;55778;54.346;10.210;2023-02-13T13:38:56;103360.56;;;6.47;79.59
68793;BME280;55778;54.346;10.210;2023-02-13T13:41:51;103362.94;;;6.56;79.78
68793;BME280;55778;54.346;10.210;2023-02-13T13:50:00;103375.97;;;6.45;80.04
68793;BME280;55778;54.346;10.210;2023-02-13T13:52:34;103379.78;;;6.39;80.08
68793;BME280;55778;54.346;10.210;2023-02-13T13:55:04;103367.06;;;6.41;80.65
68793;BME280;55778;54.346;10.210;2023-02-13T13:59:59;103369.09;;;6.59;80.95
68793;BME280;55778;54.346;10.210;2023-02-13T14:02:35;103362.94;;;6.79;79.37
68793;BME280;55778;54.346;10.210;2023-02-13T14:07:34;103346.25;;;6.66;80.43
68793;BME280;55778;54.346;10.210;2023-02-13T14:09:59;103358.75;;;6.70;79.52
68793;BME280;55778;54.346;10.210;2023-02-13T14:14:54;103353.56;;;6.64;79.45
68793;BME280;55778;54.346;10.210;2023-02-13T14:23:06;103344.53;;;6.64;80.08
68793;BME280;55778;54.346;10.210;2023-02-13T14:25:32;103343.19;;;6.52;80.55
68793;BME280;55778;54.346;10.210;2023-02-13T14:28:02;103342.00;;;6.59;80.02
68793;BME280;55778;54.346;10.210;2023-02-13T14:30:32;103337.81;;;6.51;80.28
68793;BME280;55778;54.346;10.210;2023-02-13T14:33:01;103337.81;;;6.51;80.92
68793;BME280;55778;54.346;10.210;2023-02-13T14:35:29;103343.41;;;6.46;81.07
68793;BME280;55778;54.346;10.210;2023-02-13T14:37:58;103336.28;;;6.44;81.06
68793;BME280;55778;54.346;10.210;2023-02-13T14:40:31;103343.59;;;6.42;82.16
68793;BME280;55778;54.346;10.210;2023-02-13T14:45:47;103330.72;;;6.48;82.06
68793;BME280;55778;54.346;10.210;2023-02-13T14:48:13;103328.16;;;6.44;81.30
68793;BME280;55778;54.346;10.210;2023-02-13T14:50:46;103328.88;;;6.49;81.79
68793;BME280;55778;54.346;10.210;2023-02-13T14:53:19;103332.28;;;6.54;81.66
68793;BME280;55778;54.346;10.210;2023-02-13T14:55:49;103324.28;;;6.51;81.02
68793;BME280;55778;54.346;10.210;2023-02-13T14:58:20;103328.16;;;6.44;81.73